Terminal Aerodrome Forecast
Issued by NWS Melbourne, FL

Current Version | Previous Version | Text Only | Print | Product List | Glossary On
Versions: 1 2 3 4 5 6 7 8 9 10 11 12 13 14 15 16 17 18 19
000
FTUS42 KMLB 221738
TAFMLB
TAF
KMLB 221738Z 2218/2318 12009KT P6SM VCSH SCT025 BKN080
     FM230200 12005KT P6SM FEW030 BKN100 OVC250
     FM231400 11008KT P6SM SCT025 SCT100 BKN250=

USA.gov is the U.S. government's official web portal to all federal, state and local government web resources and services.